Time;durP1;ratioP1;P1;durP2;ratioP2;P2;SDS_P1;SDS_P2;PMS_P1;PMS_P2;Temp;Humidity;BMP_temperature;BMP_pressure;BME280_temperature;BME280_humidity;BME280_pressure;Samples;Min_cycle;Max_cycle;Signal;HPM_P1;HPM_P2
2021/07/23 00:00:48;;;;;;;11.68;8.90;;;;;;;17.39;71.66;100104.42;254824;1104;116482;-67
2021/07/23 00:05:55;;;;;;;20.43;8.85;;;;;;;17.40;72.00;100117.63;255345;1104;115436;-67
2021/07/23 00:11:00;;;;;;;;;;;;;;;17.43;72.16;100110.86;254624;1104;115442;-67
2021/07/23 00:16:06;;;;;;;8.58;7.70;;;;;;;17.31;71.73;100113.84;256917;1103;102674;-68
2021/07/23 00:21:11;;;;;;;9.90;8.58;;;;;;;17.26;71.98;100111.14;255231;1104;115148;-68
2021/07/23 00:26:19;;;;;;;8.28;7.45;;;;;;;17.14;71.93;100111.39;256984;1104;115689;-68
2021/07/23 00:31:24;;;;;;;11.55;9.38;;;;;;;17.06;72.08;100108.45;255203;1104;115156;-68
2021/07/23 00:36:29;;;;;;;10.18;9.00;;;;;;;17.12;72.39;100116.24;256000;1100;115710;-67
2021/07/23 00:41:34;;;;;;;14.95;9.18;;;;;;;17.14;72.31;100113.28;254803;1104;115712;-67
2021/07/23 00:46:39;;;;;;;9.58;8.55;;;;;;;17.19;72.13;100110.59;257106;1104;116093;-67
2021/07/23 00:51:44;;;;;;;10.73;9.73;;;;;;;17.18;72.48;100115.17;257179;1104;115177;-68
2021/07/23 00:56:48;;;;;;;10.13;9.08;;;;;;;17.11;72.18;100111.96;257162;1104;115540;-69
2021/07/23 01:01:54;;;;;;;17.25;9.88;;;;;;;17.03;72.12;100109.79;257172;1104;115519;-70
2021/07/23 01:06:59;;;;;;;;;;;;;;;16.98;72.12;100107.09;257200;1104;115589;-69
2021/07/23 01:12:05;;;;;;;12.45;8.70;;;;;;;16.93;72.45;100107.08;257865;1104;102325;-70
2021/07/23 01:17:09;;;;;;;10.63;8.48;;;;;;;16.92;72.62;100105.45;256847;1104;115952;-67
2021/07/23 01:22:16;;;;;;;11.18;10.03;;;;;;;16.94;72.67;100103.31;256292;1104;115324;-68
2021/07/23 01:27:24;;;;;;;14.60;9.65;;;;;;;16.88;72.63;100092.80;256828;1104;115792;-68
2021/07/23 01:32:30;;;;;;;17.67;10.83;;;;;;;16.82;72.79;100094.66;256941;1104;115877;-66
2021/07/23 01:37:35;;;;;;;14.45;10.33;;;;;;;16.79;73.08;100101.42;255860;1104;117856;-66
2021/07/23 01:42:42;;;;;;;17.75;9.63;;;;;;;16.85;73.10;100099.52;254737;1104;115301;-67
2021/07/23 01:47:47;;;;;;;12.53;8.93;;;;;;;16.86;73.28;100093.06;253818;1104;115001;-67
2021/07/23 01:52:53;;;;;;;15.28;9.10;;;;;;;16.91;73.42;100081.48;255504;1104;115363;-68
2021/07/23 01:57:59;;;;;;;12.70;10.55;;;;;;;16.85;73.34;100086.05;253801;1100;114952;-67
2021/07/23 02:03:03;;;;;;;;;;;;;;;16.87;73.55;100083.91;254628;1104;115674;-69
2021/07/23 02:08:09;;;;;;;12.73;10.08;;;;;;;16.83;73.72;100085.52;255772;1104;103091;-69
2021/07/23 02:13:14;;;;;;;10.73;9.08;;;;;;;16.84;73.35;100081.74;254411;1104;116013;-68
2021/07/23 02:18:19;;;;;;;15.53;9.65;;;;;;;16.72;73.65;100086.59;254311;1104;115771;-69
2021/07/23 02:23:24;;;;;;;15.88;8.80;;;;;;;16.62;73.45;100083.84;254047;1099;116548;-70
2021/07/23 02:28:29;;;;;;;12.33;9.78;;;;;;;16.55;73.45;100077.89;255137;1104;116164;-71
2021/07/23 02:33:33;;;;;;;13.95;10.15;;;;;;;16.53;73.99;100075.47;254584;1104;115699;-68
2021/07/23 02:38:39;;;;;;;17.83;10.25;;;;;;;16.50;73.52;100079.52;254559;1104;115380;-68
2021/07/23 02:43:48;;;;;;;12.25;9.60;;;;;;;16.45;74.24;100074.13;254537;1104;116661;-68
2021/07/23 02:48:53;;;;;;;16.38;9.65;;;;;;;16.54;74.14;100070.89;255175;1104;115924;-68
2021/07/23 02:53:58;;;;;;;15.10;10.33;;;;;;;16.64;74.41;100073.64;254222;1104;115874;-68
2021/07/23 02:59:02;;;;;;;11.88;9.58;;;;;;;16.57;74.00;100071.17;254421;1104;116828;-68
2021/07/23 03:04:06;;;;;;;12.38;10.00;;;;;;;16.49;74.06;100069.83;255484;1104;116037;-68
2021/07/23 03:09:12;;;;;;;11.53;9.00;;;;;;;16.46;74.32;100075.73;255983;1104;116672;-68
2021/07/23 03:14:17;;;;;;;12.28;9.00;;;;;;;16.43;73.98;100073.58;257062;1104;115475;-69
2021/07/23 03:19:22;;;;;;;11.53;8.83;;;;;;;16.44;74.30;100072.50;257046;1104;117022;-69
2021/07/23 03:24:26;;;;;;;14.50;10.45;;;;;;;16.54;74.60;100070.89;257117;1104;115730;-68
2021/07/23 03:29:30;;;;;;;15.85;11.03;;;;;;;16.66;74.47;100074.19;256600;1100;115699;-68
2021/07/23 03:34:35;;;;;;;19.13;9.78;;;;;;;16.73;74.75;100066.67;254221;1100;116334;-68
2021/07/23 03:39:41;;;;;;;12.83;9.48;;;;;;;16.78;74.72;100070.19;254085;1104;115939;-68
2021/07/23 03:44:46;;;;;;;14.05;8.85;;;;;;;16.82;73.65;100067.73;255895;1104;116374;-68
2021/07/23 03:49:51;;;;;;;11.68;10.18;;;;;;;16.80;74.13;100064.53;255564;1104;115780;-68
2021/07/23 03:54:55;;;;;;;18.00;9.90;;;;;;;16.93;74.81;100063.18;254298;1104;115709;-68
2021/07/23 04:00:00;;;;;;;11.78;9.90;;;;;;;17.06;74.79;100065.36;255972;1104;115832;-68
2021/07/23 04:05:06;;;;;;;12.53;10.43;;;;;;;17.17;74.84;100067.77;255376;1104;115795;-68
2021/07/23 04:10:11;;;;;;;13.20;10.38;;;;;;;17.25;74.84;100061.03;254995;1104;116163;-68
2021/07/23 04:15:16;;;;;;;12.45;10.08;;;;;;;17.33;74.89;100060.49;254144;1104;115968;-68
2021/07/23 04:20:20;;;;;;;14.43;10.17;;;;;;;17.40;74.58;100061.03;254693;1104;115483;-68
2021/07/23 04:25:25;;;;;;;11.83;10.65;;;;;;;17.48;74.57;100055.06;254444;1104;117287;-68
2021/07/23 04:30:30;;;;;;;16.98;11.23;;;;;;;17.55;74.40;100048.59;254203;1104;115999;-68
2021/07/23 04:35:35;;;;;;;12.95;8.63;;;;;;;17.60;74.40;100049.39;254134;1104;115953;-68
2021/07/23 04:40:39;;;;;;;16.95;11.28;;;;;;;17.62;74.28;100049.93;255267;1104;116995;-68
2021/07/23 04:45:43;;;;;;;14.75;10.90;;;;;;;17.69;74.38;100052.38;255411;1104;115963;-68
2021/07/23 04:50:48;;;;;;;15.38;10.58;;;;;;;17.74;74.14;100050.45;254156;1104;116891;-68
2021/07/23 04:55:58;;;;;;;14.50;9.40;;;;;;;17.76;73.89;100040.20;254306;1104;116684;-68
2021/07/23 05:01:03;;;;;;;12.93;11.10;;;;;;;17.84;73.97;100041.53;254264;1104;116022;-69
2021/07/23 05:06:09;;;;;;;12.90;10.03;;;;;;;17.87;73.53;100040.98;254881;1104;116342;-69
2021/07/23 05:11:19;;;;;;;11.53;10.23;;;;;;;17.97;73.50;100040.14;254186;1104;117265;-68
2021/07/23 05:16:23;;;;;;;15.50;11.10;;;;;;;17.99;73.52;100033.39;253991;1104;117986;-68
2021/07/23 05:21:29;;;;;;;12.05;10.35;;;;;;;18.01;73.57;100036.63;254553;1104;117661;-68
2021/07/23 05:26:37;;;;;;;13.48;9.88;;;;;;;18.08;73.50;100042.51;254333;1104;117762;-68
2021/07/23 05:31:43;;;;;;;14.35;12.00;;;;;;;18.13;73.44;100044.38;254668;1104;117200;-68
2021/07/23 05:36:50;;;;;;;12.13;9.28;;;;;;;18.05;73.23;100037.66;255579;1104;117384;-69
2021/07/23 05:41:54;;;;;;;16.65;10.58;;;;;;;18.08;73.17;100039.00;255584;1104;116983;-69
2021/07/23 05:47:00;;;;;;;17.08;9.10;;;;;;;18.25;73.19;100033.27;254271;1104;116612;-69
2021/07/23 05:52:06;;;;;;;14.65;10.03;;;;;;;18.34;73.00;100028.91;254625;1104;117207;-69
2021/07/23 05:57:12;;;;;;;14.25;10.80;;;;;;;18.46;72.53;100035.56;255136;1104;117418;-68
2021/07/23 06:02:18;;;;;;;12.18;9.44;;;;;;;18.58;72.33;100034.43;254616;1104;120119;-69
2021/07/23 06:07:23;;;;;;;11.00;9.87;;;;;;;18.64;72.02;100038.75;254486;1104;116716;-68
2021/07/23 06:12:28;;;;;;;13.33;9.35;;;;;;;18.68;71.86;100039.77;254330;1104;117221;-68
2021/07/23 06:17:32;;;;;;;14.40;8.90;;;;;;;18.77;71.86;100048.90;253997;1104;116504;-69
2021/07/23 06:22:38;;;;;;;16.10;10.03;;;;;;;18.83;71.53;100053.18;254402;1104;117839;-69
2021/07/23 06:27:43;;;;;;;;;;;;;;;18.91;71.70;100052.59;254689;1098;116769;-68
2021/07/23 06:32:47;;;;;;;11.73;9.35;;;;;;;18.98;71.64;100049.54;254915;1104;104055;-68
2021/07/23 06:37:53;;;;;;;10.90;8.18;;;;;;;19.07;71.12;100059.47;254543;1099;116641;-69
2021/07/23 06:42:58;;;;;;;11.83;9.13;;;;;;;19.16;71.10;100051.57;254598;1104;135474;-69
2021/07/23 06:48:02;;;;;;;11.35;8.93;;;;;;;19.25;70.74;100054.47;254342;1100;115641;-69
2021/07/23 06:53:08;;;;;;;14.08;9.98;;;;;;;19.43;70.79;100048.34;254245;1104;115292;-69
2021/07/23 06:58:14;;;;;;;11.30;8.83;;;;;;;19.55;70.78;100051.51;253976;1104;116845;-69
2021/07/23 07:03:23;;;;;;;13.08;9.40;;;;;;;19.69;70.42;100052.42;255285;1104;115917;-69
2021/07/23 07:08:29;;;;;;;15.70;9.78;;;;;;;19.83;70.16;100042.54;255707;1104;116674;-69
2021/07/23 07:13:38;;;;;;;10.80;8.85;;;;;;;20.06;70.07;100048.22;255905;1104;116538;-68
2021/07/23 07:18:47;;;;;;;10.30;8.93;;;;;;;20.24;69.71;100047.42;254263;1104;118103;-69
2021/07/23 07:23:52;;;;;;;10.60;9.03;;;;;;;20.45;69.29;100039.88;254325;1100;117867;-69
2021/07/23 07:28:58;;;;;;;11.73;9.03;;;;;;;20.61;68.73;100052.09;256368;1104;115739;-69
2021/07/23 07:34:03;;;;;;;11.88;8.43;;;;;;;20.81;68.64;100053.68;257140;1104;118529;-70
2021/07/23 07:39:09;;;;;;;13.63;8.70;;;;;;;20.93;67.77;100053.23;257116;1104;118283;-70
2021/07/23 07:44:13;;;;;;;21.90;9.73;;;;;;;21.15;67.72;100059.63;256453;1104;115497;-72
2021/07/23 07:49:19;;;;;;;13.03;9.90;;;;;;;21.38;67.65;100049.80;255556;1104;115914;-71
2021/07/23 07:54:24;;;;;;;25.65;9.70;;;;;;;21.53;67.11;100048.70;254087;1099;115632;-71
2021/07/23 07:59:29;;;;;;;13.67;8.93;;;;;;;21.70;66.38;100045.42;255315;1100;115942;-71
2021/07/23 08:04:34;;;;;;;10.08;9.00;;;;;;;21.87;66.35;100059.18;255080;1104;115639;-72
2021/07/23 08:09:52;;;;;;;10.45;7.93;;;;;;;22.06;65.99;100053.66;254180;1104;117018;-71
2021/07/23 08:15:01;;;;;;;13.30;9.00;;;;;;;22.29;65.62;100054.56;254205;1104;116979;-69
2021/07/23 08:20:06;;;;;;;9.60;7.73;;;;;;;22.45;64.81;100059.34;254288;1104;116326;-71
2021/07/23 08:25:12;;;;;;;10.33;7.98;;;;;;;22.54;64.51;100061.34;254157;1104;116016;-71
2021/07/23 08:30:17;;;;;;;14.95;9.05;;;;;;;22.66;64.31;100058.88;254125;1104;116204;-72
2021/07/23 08:35:22;;;;;;;8.58;7.78;;;;;;;22.79;63.47;100064.30;254175;1104;116510;-68
2021/07/23 08:40:27;;;;;;;24.18;9.58;;;;;;;22.92;63.63;100057.22;254382;1104;117653;-71
2021/07/23 08:45:31;;;;;;;9.83;7.73;;;;;;;23.11;62.93;100054.30;255142;1100;116208;-71
2021/07/23 08:50:35;;;;;;;13.03;8.63;;;;;;;23.23;62.20;100059.19;254278;1099;115890;-72
2021/07/23 08:55:40;;;;;;;9.90;7.05;;;;;;;23.25;61.71;100055.01;254445;1104;115878;-71
2021/07/23 09:00:45;;;;;;;8.90;7.93;;;;;;;23.32;61.44;100054.58;254784;1104;117224;-70
2021/07/23 09:05:50;;;;;;;10.35;8.20;;;;;;;23.45;61.13;100050.98;254218;1100;117836;-71
2021/07/23 09:11:05;;;;;;;11.55;8.18;;;;;;;23.53;60.77;100050.26;255489;1104;116018;-72
2021/07/23 09:16:25;;;;;;;18.35;8.70;;;;;;;23.68;60.38;100043.58;255371;1104;116271;-71
2021/07/23 09:21:31;;;;;;;10.80;7.90;;;;;;;23.78;59.76;100049.56;255822;1104;116344;-71
2021/07/23 09:26:41;;;;;;;;;;;;;;;23.88;58.85;100039.48;254521;1104;116987;-71
2021/07/23 09:32:06;;;;;;;8.10;6.48;;;;;;;24.08;58.29;100041.64;256716;1104;103535;-71
2021/07/23 09:37:12;;;;;;;10.50;7.90;;;;;;;24.34;58.17;100041.71;255691;1104;116998;-71
2021/07/23 09:42:32;;;;;;;7.03;6.33;;;;;;;24.53;58.16;100035.94;257072;1104;116724;-72
2021/07/23 09:47:37;;;;;;;7.40;6.63;;;;;;;24.78;57.88;100046.03;256027;1104;115971;-71
2021/07/23 09:52:42;;;;;;;14.00;7.45;;;;;;;24.99;57.07;100038.85;256807;1104;116322;-71
2021/07/23 09:57:51;;;;;;;11.18;6.93;;;;;;;25.29;55.93;100036.22;257369;1104;116507;-72
2021/07/23 10:02:56;;;;;;;8.40;7.05;;;;;;;25.61;55.68;100029.36;255463;1104;117291;-71
2021/07/23 10:08:06;;;;;;;9.50;7.60;;;;;;;25.93;55.28;100025.23;254387;1104;116313;-71
2021/07/23 10:13:11;;;;;;;8.83;7.05;;;;;;;26.15;54.25;100022.19;254678;1104;116456;-71
2021/07/23 10:18:17;;;;;;;9.43;8.47;;;;;;;26.44;54.39;100016.70;254115;1104;116840;-72
2021/07/23 10:23:24;;;;;;;9.90;6.48;;;;;;;26.71;53.21;100012.61;254264;1104;117134;-72
2021/07/23 10:28:44;;;;;;;8.53;6.05;;;;;;;26.91;52.22;100019.17;253987;1104;116481;-72
2021/07/23 10:33:56;;;;;;;8.63;6.37;;;;;;;26.89;51.48;100012.47;254149;1104;116464;-72
2021/07/23 10:39:17;;;;;;;8.77;6.67;;;;;;;26.97;51.00;100008.85;254238;1104;117378;-71
2021/07/23 10:44:28;;;;;;;8.60;7.23;;;;;;;27.13;50.26;99996.94;254141;1104;115749;-71
2021/07/23 10:49:35;;;;;;;7.33;6.30;;;;;;;27.28;49.61;99997.41;254350;1104;116601;-72
2021/07/23 10:55:10;;;;;;;6.80;6.20;;;;;;;27.52;49.11;99991.95;254282;1104;117817;-72
2021/07/23 11:00:48;;;;;;;9.83;7.05;;;;;;;27.67;48.81;99982.30;254187;1104;118632;-72
2021/07/23 11:05:54;;;;;;;7.63;6.93;;;;;;;27.81;48.17;99964.39;254190;1099;117083;-72
2021/07/23 11:10:59;;;;;;;7.45;6.75;;;;;;;27.79;46.90;99963.94;254034;1104;116387;-72
2021/07/23 11:16:11;;;;;;;8.77;6.07;;;;;;;27.80;47.82;99960.05;254219;1104;117086;-71
2021/07/23 11:21:17;;;;;;;7.10;6.03;;;;;;;27.84;47.72;99951.91;254458;1100;116858;-72
2021/07/23 11:26:25;;;;;;;7.33;5.75;;;;;;;27.90;47.01;99953.28;254208;1104;117615;-72
2021/07/23 11:31:36;;;;;;;7.78;6.45;;;;;;;27.87;46.15;99953.97;255334;1104;115980;-72
2021/07/23 11:36:45;;;;;;;8.60;6.85;;;;;;;28.05;46.45;99938.08;254267;1104;115429;-72
2021/07/23 11:42:07;;;;;;;6.63;5.93;;;;;;;28.18;45.73;99937.69;255265;1104;116372;-72
2021/07/23 11:47:11;;;;;;;7.18;6.48;;;;;;;28.36;45.52;99937.44;254844;1104;116338;-72
2021/07/23 11:52:23;;;;;;;13.25;6.03;;;;;;;28.33;45.13;99927.97;256681;1104;117294;-73
2021/07/23 11:57:30;;;;;;;6.03;5.53;;;;;;;28.36;44.51;99930.02;257035;1104;115829;-72
2021/07/23 12:02:35;;;;;;;7.10;6.40;;;;;;;28.33;44.14;99924.42;257292;1104;115597;-73
2021/07/23 12:07:41;;;;;;;6.87;6.17;;;;;;;28.33;44.16;99930.70;257385;1104;116022;-72
2021/07/23 12:12:46;;;;;;;7.38;5.90;;;;;;;28.47;43.40;99917.38;257164;1104;116733;-72
2021/07/23 12:17:52;;;;;;;6.93;6.13;;;;;;;28.78;43.02;99910.36;254646;1100;115792;-72
2021/07/23 12:23:04;;;;;;;6.65;5.98;;;;;;;28.91;42.05;99914.66;255746;1104;115520;-72
2021/07/23 12:28:12;;;;;;;7.80;7.10;;;;;;;28.82;41.72;99912.08;254171;1104;115459;-72
2021/07/23 12:33:29;;;;;;;7.33;6.65;;;;;;;28.40;41.54;99908.98;254589;1104;118037;-72
2021/07/23 12:38:34;;;;;;;8.98;7.00;;;;;;;28.16;42.12;99906.28;254044;1104;115739;-72
2021/07/23 12:43:39;;;;;;;6.90;6.20;;;;;;;27.93;42.34;99903.28;254346;1104;116729;-72
2021/07/23 12:48:44;;;;;;;7.10;5.45;;;;;;;27.74;42.41;99905.84;254719;1104;115858;-72
2021/07/23 12:53:57;;;;;;;10.90;6.53;;;;;;;27.63;43.09;99910.98;254505;1104;115526;-72
2021/07/23 12:59:27;;;;;;;8.20;6.88;;;;;;;27.54;42.53;99917.69;254345;1104;116471;-72
2021/07/23 13:04:32;;;;;;;7.10;6.30;;;;;;;27.45;43.25;99906.88;254103;1104;116227;-73
2021/07/23 13:09:47;;;;;;;8.20;7.35;;;;;;;27.30;43.37;99902.88;253853;1104;115760;-72
2021/07/23 13:14:52;;;;;;;7.95;7.18;;;;;;;27.05;43.97;99909.47;255051;1104;115704;-69
2021/07/23 13:19:57;;;;;;;8.88;7.98;;;;;;;26.83;43.91;99911.47;253878;1104;116180;-68
2021/07/23 13:25:06;;;;;;;7.08;6.20;;;;;;;26.72;44.01;99902.09;257239;1104;116338;-68
2021/07/23 13:30:12;;;;;;;8.08;5.98;;;;;;;26.66;44.11;99908.11;257024;1104;116109;-68
2021/07/23 13:35:17;;;;;;;6.85;6.25;;;;;;;26.48;43.79;99902.83;257272;1104;115871;-68
2021/07/23 13:40:32;;;;;;;13.25;6.75;;;;;;;26.29;44.78;99907.17;257085;1104;115400;-68
2021/07/23 13:45:36;;;;;;;7.63;6.05;;;;;;;26.00;44.52;99910.76;257075;1104;117294;-68
2021/07/23 13:50:41;;;;;;;7.08;6.48;;;;;;;25.59;44.88;99916.97;257098;1104;115625;-68
2021/07/23 13:55:45;;;;;;;9.45;8.08;;;;;;;25.24;45.34;99913.61;257042;1104;115671;-70
2021/07/23 14:00:49;;;;;;;9.80;7.50;;;;;;;24.85;45.72;99910.83;256983;1104;116144;-68
2021/07/23 14:05:53;;;;;;;9.25;8.23;;;;;;;24.61;47.46;99921.48;257022;1104;116262;-69
2021/07/23 14:11:00;;;;;;;15.03;8.78;;;;;;;24.40;47.06;99921.35;257059;1104;116651;-70
2021/07/23 14:16:06;;;;;;;14.53;8.45;;;;;;;24.17;47.94;99914.42;257211;1104;115835;-68
2021/07/23 14:21:12;;;;;;;7.78;6.60;;;;;;;24.04;48.81;99918.12;257340;1104;117484;-71
2021/07/23 14:26:19;;;;;;;9.53;8.35;;;;;;;23.94;49.64;99912.97;254852;1098;116918;-71
2021/07/23 14:31:24;;;;;;;9.70;7.43;;;;;;;23.81;49.79;99915.55;253628;1104;116168;-71
2021/07/23 14:36:29;;;;;;;10.25;7.73;;;;;;;23.72;50.13;99905.75;253510;1104;117004;-69
2021/07/23 14:41:34;;;;;;;13.60;8.83;;;;;;;23.71;51.21;99910.39;253376;1104;117389;-68
2021/07/23 14:46:40;;;;;;;8.22;7.44;;;;;;;23.73;51.29;99910.88;253510;1104;116392;-69
2021/07/23 14:51:45;;;;;;;10.05;7.30;;;;;;;23.74;51.02;99904.31;253654;1104;116703;-69
2021/07/23 14:56:49;;;;;;;9.83;7.45;;;;;;;23.79;52.06;99906.89;253426;1100;116244;-69
2021/07/23 15:01:56;;;;;;;8.85;7.70;;;;;;;23.91;51.31;99898.08;253534;1104;117205;-68
2021/07/23 15:07:01;;;;;;;8.00;7.17;;;;;;;24.10;50.95;99897.78;253635;1104;117568;-68
2021/07/23 15:12:05;;;;;;;9.18;8.35;;;;;;;24.11;51.02;99893.94;253406;1104;116442;-68
2021/07/23 15:17:12;;;;;;;16.08;8.28;;;;;;;24.21;50.59;99888.15;253432;1104;116900;-68
2021/07/23 15:22:18;;;;;;;7.73;6.45;;;;;;;24.29;51.02;99886.58;253465;1098;117884;-68
2021/07/23 15:27:23;;;;;;;11.33;8.50;;;;;;;24.27;50.65;99886.90;253666;1104;116575;-68
2021/07/23 15:32:27;;;;;;;8.58;6.65;;;;;;;24.32;50.62;99881.28;253530;1104;116070;-67
2021/07/23 15:37:33;;;;;;;9.93;7.48;;;;;;;24.30;50.36;99880.00;256673;1104;115583;-69
2021/07/23 15:42:39;;;;;;;;;;;;;;;24.33;50.29;99874.72;255071;1104;115131;-69
2021/07/23 15:47:44;;;;;;;7.35;6.68;;;;;;;24.33;50.60;99873.92;254840;1104;103099;-69
2021/07/23 15:52:50;;;;;;;9.15;8.13;;;;;;;24.32;50.74;99870.39;256968;1104;115617;-69
2021/07/23 15:57:55;;;;;;;7.73;6.93;;;;;;;24.35;50.37;99866.22;257256;1104;115391;-67
2021/07/23 16:03:03;;;;;;;;;;;;;;;24.34;50.39;99867.34;257123;1104;115519;-70
2021/07/23 16:08:08;;;;;;;10.20;7.98;;;;;;;24.30;49.97;99861.73;258064;1104;121465;-70
2021/07/23 16:13:12;;;;;;;11.15;8.33;;;;;;;24.31;49.94;99857.09;257064;1104;115181;-71
2021/07/23 16:18:17;;;;;;;11.30;8.23;;;;;;;24.28;50.27;99857.73;257132;1104;116180;-72
2021/07/23 16:23:21;;;;;;;7.68;6.68;;;;;;;24.23;50.20;99861.39;257080;1104;115585;-73
2021/07/23 16:28:28;;;;;;;8.03;7.13;;;;;;;24.18;50.49;99848.73;257002;1104;115599;-73
2021/07/23 16:33:32;;;;;;;13.70;7.70;;;;;;;24.14;50.32;99849.72;257033;1104;116416;-72
2021/07/23 16:38:37;;;;;;;11.83;7.20;;;;;;;24.10;50.48;99846.84;256936;1104;115703;-71
2021/07/23 16:43:42;;;;;;;8.60;7.00;;;;;;;24.04;51.75;99856.29;257122;1104;115836;-70
2021/07/23 16:48:46;;;;;;;10.03;8.28;;;;;;;23.94;52.14;99853.88;257014;1104;115496;-71
2021/07/23 16:53:51;;;;;;;8.83;7.80;;;;;;;23.82;53.60;99849.09;257106;1104;115836;-71
2021/07/23 16:58:56;;;;;;;10.33;7.90;;;;;;;23.79;52.74;99847.00;256979;1104;115638;-71
2021/07/23 17:04:02;;;;;;;8.80;7.90;;;;;;;23.79;53.46;99851.65;257067;1104;116039;-71
2021/07/23 17:09:07;;;;;;;9.20;8.30;;;;;;;23.74;54.06;99846.36;257226;1104;116054;-72
2021/07/23 17:14:14;;;;;;;10.43;7.43;;;;;;;23.66;54.68;99841.70;257375;1104;115698;-69
2021/07/23 17:19:19;;;;;;;9.20;8.08;;;;;;;23.58;55.12;99840.56;257177;1104;115672;-69
2021/07/23 17:24:23;;;;;;;16.28;7.98;;;;;;;23.49;55.91;99850.63;256753;1104;116176;-69
2021/07/23 17:29:28;;;;;;;10.83;8.75;;;;;;;23.37;56.04;99839.55;253505;1104;117634;-70
2021/07/23 17:34:33;;;;;;;11.13;7.75;;;;;;;23.24;56.56;99840.46;253623;1104;118509;-68
2021/07/23 17:39:38;;;;;;;12.35;9.28;;;;;;;23.13;56.83;99838.05;253605;1104;116325;-69
2021/07/23 17:44:53;;;;;;;9.45;8.40;;;;;;;23.03;57.84;99835.61;253793;1104;115130;-68
2021/07/23 17:49:59;;;;;;;12.93;8.75;;;;;;;22.88;57.90;99832.53;254162;1104;115666;-67
2021/07/23 17:55:04;;;;;;;12.43;8.95;;;;;;;22.72;58.48;99841.05;253778;1099;114776;-67
2021/07/23 18:00:10;;;;;;;9.60;8.33;;;;;;;22.54;58.73;99833.14;254214;1099;115950;-67
2021/07/23 18:05:14;;;;;;;8.85;7.95;;;;;;;22.39;59.46;99831.60;254278;1104;115922;-68
2021/07/23 18:10:24;;;;;;;17.95;9.70;;;;;;;22.24;59.57;99829.28;255047;1103;115960;-68
2021/07/23 18:15:29;;;;;;;10.38;7.83;;;;;;;22.07;60.23;99838.89;254695;1104;115503;-68
2021/07/23 18:20:34;;;;;;;11.58;7.33;;;;;;;21.82;60.19;99836.75;253718;1104;116743;-68
2021/07/23 18:25:39;;;;;;;12.30;8.63;;;;;;;21.64;60.73;99829.59;253857;1104;117293;-68
2021/07/23 18:30:43;;;;;;;12.33;9.13;;;;;;;21.54;61.21;99825.18;257200;1104;116551;-67
2021/07/23 18:35:48;;;;;;;9.95;8.55;;;;;;;21.46;61.17;99832.12;257112;1104;115455;-67
2021/07/23 18:40:53;;;;;;;10.43;8.33;;;;;;;21.35;61.28;99836.17;257137;1104;115794;-68
2021/07/23 18:45:58;;;;;;;10.78;8.15;;;;;;;21.16;61.43;99832.73;257046;1104;115240;-67
2021/07/23 18:51:03;;;;;;;13.43;8.17;;;;;;;21.01;61.92;99831.14;257086;1104;115392;-68
2021/07/23 18:56:07;;;;;;;12.58;9.78;;;;;;;20.83;61.93;99834.73;257010;1104;118147;-68
2021/07/23 19:01:12;;;;;;;11.20;9.05;;;;;;;20.53;62.23;99846.13;257079;1104;117933;-68
2021/07/23 19:06:21;;;;;;;9.10;8.13;;;;;;;20.31;63.04;99836.72;253904;1104;115841;-67
2021/07/23 19:11:27;;;;;;;11.10;8.53;;;;;;;20.31;63.63;99846.74;253651;1104;115468;-69
2021/07/23 19:16:32;;;;;;;13.50;10.25;;;;;;;20.20;63.85;99848.80;253661;1104;115639;-68
2021/07/23 19:21:37;;;;;;;14.80;9.50;;;;;;;20.14;64.25;99842.69;255217;1104;115994;-69
2021/07/23 19:26:41;;;;;;;11.68;8.63;;;;;;;19.93;64.04;99843.28;253570;1104;115335;-69
2021/07/23 19:31:46;;;;;;;10.15;9.15;;;;;;;19.85;64.79;99839.36;253627;1104;115347;-67
2021/07/23 19:36:51;;;;;;;12.40;9.53;;;;;;;19.82;65.10;99843.45;253572;1100;114614;-69
2021/07/23 19:41:59;;;;;;;10.83;9.58;;;;;;;19.84;65.60;99845.87;253577;1100;116172;-69
2021/07/23 19:47:04;;;;;;;13.43;11.60;;;;;;;19.76;65.37;99846.52;255042;1104;115522;-68
2021/07/23 19:52:09;;;;;;;11.35;9.10;;;;;;;19.69;65.48;99854.19;253537;1104;117776;-68
2021/07/23 19:57:14;;;;;;;11.18;9.50;;;;;;;19.70;66.22;99853.89;253563;1104;117393;-67
2021/07/23 20:02:21;;;;;;;11.35;9.48;;;;;;;19.68;66.21;99853.38;253651;1100;116877;-67
2021/07/23 20:07:27;;;;;;;20.53;10.40;;;;;;;19.61;66.37;99857.53;253849;1104;115511;-68
2021/07/23 20:12:32;;;;;;;10.50;9.00;;;;;;;19.52;66.89;99849.30;254177;1104;117735;-67
2021/07/23 20:17:37;;;;;;;13.40;8.78;;;;;;;19.29;66.78;99853.59;253529;1104;117234;-69
2021/07/23 20:22:44;;;;;;;17.70;11.30;;;;;;;19.21;67.06;99854.25;253640;1104;116360;-68
2021/07/23 20:27:48;;;;;;;;;;;;;;;19.02;67.13;99856.88;254803;1104;115576;-68
2021/07/23 20:32:53;;;;;;;24.73;9.73;;;;;;;18.84;67.67;99855.73;256691;1104;103432;-66
2021/07/23 20:37:58;;;;;;;12.55;9.78;;;;;;;18.75;68.22;99860.14;257067;1104;117764;-67
2021/07/23 20:43:03;;;;;;;16.85;9.50;;;;;;;18.77;68.02;99855.26;257035;1104;116137;-67
2021/07/23 20:48:13;;;;;;;12.55;9.65;;;;;;;18.84;68.29;99857.63;256700;1104;114955;-67
2021/07/23 20:53:24;;;;;;;14.65;11.00;;;;;;;18.75;68.15;99854.73;257119;1104;116403;-68
2021/07/23 20:58:28;;;;;;;11.28;10.10;;;;;;;18.78;69.00;99862.27;257013;1104;116239;-68
2021/07/23 21:03:31;;;;;;;14.30;10.88;;;;;;;18.89;69.01;99856.77;257057;1104;116695;-67
2021/07/23 21:08:36;;;;;;;14.85;11.35;;;;;;;18.80;68.60;99864.69;257128;1104;118465;-67
2021/07/23 21:13:40;;;;;;;21.15;10.60;;;;;;;18.80;68.98;99875.49;257147;1104;116735;-66
2021/07/23 21:18:45;;;;;;;13.63;10.45;;;;;;;18.78;68.83;99872.27;257079;1104;117596;-66
2021/07/23 21:23:50;;;;;;;10.83;9.75;;;;;;;18.68;68.89;99880.46;257063;1104;117124;-66
2021/07/23 21:28:56;;;;;;;12.20;10.80;;;;;;;18.59;69.13;99882.16;256062;1104;116385;-66
2021/07/23 21:34:03;;;;;;;20.98;10.76;;;;;;;18.57;69.26;99877.03;257168;1104;115828;-66
2021/07/23 21:39:09;;;;;;;19.33;11.68;;;;;;;18.52;69.64;99874.38;256602;1104;115087;-65
2021/07/23 21:44:16;;;;;;;24.55;12.08;;;;;;;18.50;69.87;99881.95;256224;1104;116216;-65
2021/07/23 21:49:20;;;;;;;18.53;13.43;;;;;;;18.60;69.95;99886.50;256586;1104;116316;-66
2021/07/23 21:54:26;;;;;;;14.18;12.58;;;;;;;18.52;69.79;99877.08;254418;1104;115629;-66
2021/07/23 21:59:34;;;;;;;17.98;13.75;;;;;;;18.45;70.34;99877.39;256377;1104;115368;-67
2021/07/23 22:04:40;;;;;;;;;;;;;;;18.38;70.35;99882.30;254647;1104;116201;-67
2021/07/23 22:09:45;;;;;;;25.68;12.83;;;;;;;18.29;70.68;99884.02;254878;1099;103148;-66
2021/07/23 22:14:49;;;;;;;30.93;12.93;;;;;;;18.32;70.66;99888.05;254607;1104;115633;-66
2021/07/23 22:20:00;;;;;;;18.00;12.70;;;;;;;18.33;70.92;99887.77;255614;1104;116083;-67
2021/07/23 22:25:05;;;;;;;20.03;13.75;;;;;;;18.30;71.02;99890.22;254775;1104;115801;-68
2021/07/23 22:30:11;;;;;;;20.10;14.40;;;;;;;18.21;71.06;99884.61;255158;1104;115804;-68
2021/07/23 22:35:16;;;;;;;12.85;11.48;;;;;;;18.14;71.39;99886.81;256616;1104;115926;-67
2021/07/23 22:40:24;;;;;;;20.70;13.65;;;;;;;18.13;71.22;99886.02;256479;1104;115492;-67
2021/07/23 22:45:29;;;;;;;18.85;13.25;;;;;;;18.07;71.17;99875.53;255372;1104;115374;-66
2021/07/23 22:50:35;;;;;;;26.07;13.90;;;;;;;17.99;71.56;99882.34;257076;1104;116771;-66
2021/07/23 22:55:40;;;;;;;22.98;14.68;;;;;;;17.92;71.71;99879.15;257422;1104;116626;-67
2021/07/23 23:00:46;;;;;;;18.45;13.08;;;;;;;17.90;71.90;99875.12;256292;1104;117261;-67
2021/07/23 23:05:52;;;;;;;27.28;13.15;;;;;;;17.99;72.26;99873.45;255089;1104;117036;-66
2021/07/23 23:10:58;;;;;;;22.35;13.88;;;;;;;18.07;72.17;99879.03;253958;1100;117384;-66